Time;durP1;ratioP1;P1;durP2;ratioP2;P2;SDS_P1;SDS_P2;PMS_P1;PMS_P2;Temp;Humidity;BMP_temperature;BMP_pressure;BME280_temperature;BME280_humidity;BME280_pressure;Samples;Min_cycle;Max_cycle;Signal;HPM_P1;HPM_P2
2021/05/17 00:01:04;;;;;;;2.13;0.93;;;12.00;99.90;;;;;;5050946;28;20192;-90
2021/05/17 00:03:31;;;;;;;3.53;0.70;;;11.90;99.90;;;;;;5053580;28;20171;-91
2021/05/17 00:05:57;;;;;;;2.67;0.70;;;12.00;99.90;;;;;;5052910;28;20211;-90
2021/05/17 00:08:23;;;;;;;1.15;0.70;;;12.00;99.90;;;;;;5045150;28;20186;-90
2021/05/17 00:10:49;;;;;;;2.15;1.10;;;11.90;99.90;;;;;;5056357;28;20239;-90
2021/05/17 00:13:15;;;;;;;4.03;0.95;;;11.90;99.90;;;;;;5066273;28;20167;-90
2021/05/17 00:15:41;;;;;;;0.50;0.50;;;11.90;99.90;;;;;;5066242;28;20188;-92
2021/05/17 00:18:07;;;;;;;3.42;0.90;;;11.90;99.90;;;;;;5066448;28;20522;-91
2021/05/17 00:20:33;;;;;;;1.85;0.82;;;11.90;99.90;;;;;;5066506;28;20252;-90
2021/05/17 00:22:59;;;;;;;1.38;1.00;;;11.80;99.90;;;;;;5042900;28;20637;-90
2021/05/17 00:25:27;;;;;;;3.42;1.00;;;11.80;99.90;;;;;;5064527;28;20706;-90
2021/05/17 00:27:54;;;;;;;1.75;0.90;;;11.80;99.90;;;;;;5053249;28;20640;-89
2021/05/17 00:30:23;;;;;;;3.38;1.23;;;11.80;99.90;;;;;;5053388;28;20176;-90
2021/05/17 00:32:49;;;;;;;3.20;1.40;;;11.80;99.90;;;;;;5050371;28;20221;-89
2021/05/17 00:35:16;;;;;;;4.05;1.80;;;11.80;99.90;;;;;;5039354;28;20179;-89
2021/05/17 00:37:43;;;;;;;7.57;3.33;;;11.90;99.90;;;;;;5036833;28;20176;-90
2021/05/17 00:40:10;;;;;;;8.38;4.55;;;11.90;99.90;;;;;;5049689;28;20179;-90
2021/05/17 00:42:37;;;;;;;11.15;5.60;;;12.00;99.90;;;;;;5053304;28;20206;-90
2021/05/17 00:45:05;;;;;;;13.32;5.88;;;12.00;99.90;;;;;;5086322;28;20209;-91
2021/05/17 00:47:31;;;;;;;14.02;6.70;;;12.00;99.90;;;;;;5052757;28;20214;-91
2021/05/17 00:49:58;;;;;;;12.82;6.65;;;12.00;99.90;;;;;;5047063;28;20172;-89
2021/05/17 00:52:24;;;;;;;15.65;7.93;;;12.00;99.90;;;;;;5053342;28;20175;-90
2021/05/17 00:54:50;;;;;;;16.48;8.00;;;12.00;99.90;;;;;;5086488;28;20233;-90
2021/05/17 00:57:16;;;;;;;13.15;7.30;;;11.90;99.90;;;;;;5052585;28;20271;-89
2021/05/17 00:59:42;;;;;;;13.77;6.93;;;11.90;99.90;;;;;;5054110;28;20199;-90
2021/05/17 01:02:08;;;;;;;14.82;7.45;;;11.90;99.90;;;;;;5069147;28;20195;-89
2021/05/17 01:04:34;;;;;;;17.60;7.20;;;11.90;99.90;;;;;;5046996;28;20686;-89
2021/05/17 01:07:00;;;;;;;8.02;6.22;;;11.90;99.90;;;;;;5043140;28;20248;-89
2021/05/17 01:09:27;;;;;;;14.98;6.00;;;11.90;99.90;;;;;;5053245;28;20173;-91
2021/05/17 01:12:00;;;;;;;9.63;5.65;;;12.00;99.90;;;;;;5052474;28;20179;-89
2021/05/17 01:14:26;;;;;;;11.48;5.25;;;12.00;99.90;;;;;;5085955;28;20636;-90
2021/05/17 01:16:55;;;;;;;8.65;5.47;;;12.00;99.90;;;;;;5041249;28;20279;-91
2021/05/17 01:19:40;;;;;;;14.15;5.65;;;12.00;99.90;;;;;;5044620;28;20183;-89
2021/05/17 01:22:16;;;;;;;11.98;4.72;;;12.00;99.90;;;;;;5054047;28;20174;-90
2021/05/17 01:24:42;;;;;;;13.73;5.30;;;12.10;99.90;;;;;;5052471;28;20199;-90
2021/05/17 01:27:09;;;;;;;7.78;4.32;;;12.10;99.90;;;;;;5052558;28;20176;-89
2021/05/17 01:29:35;;;;;;;10.70;4.80;;;12.10;99.90;;;;;;5064611;28;20182;-90
2021/05/17 01:32:02;;;;;;;9.27;4.10;;;12.20;99.90;;;;;;5049859;28;20190;-91
2021/05/17 01:34:28;;;;;;;4.38;3.90;;;12.20;99.90;;;;;;5054745;28;20235;-91
2021/05/17 01:36:54;;;;;;;5.65;2.95;;;12.20;99.90;;;;;;5046440;28;20182;-91
2021/05/17 01:39:24;;;;;;;4.13;2.42;;;12.20;99.90;;;;;;5089857;28;20179;-93
2021/05/17 01:41:52;;;;;;;8.50;2.55;;;12.10;99.90;;;;;;5057641;28;20206;-90
2021/05/17 01:44:23;;;;;;;3.17;1.75;;;12.00;99.90;;;;;;5045933;28;20610;-91
2021/05/17 01:46:50;;;;;;;7.72;2.42;;;12.00;99.90;;;;;;5057778;28;20179;-91
2021/05/17 01:49:17;;;;;;;6.38;2.05;;;12.00;99.90;;;;;;5063570;28;20636;-89
2021/05/17 01:51:45;;;;;;;6.00;1.75;;;12.10;99.90;;;;;;5076485;28;20208;-89
2021/05/17 01:54:11;;;;;;;4.85;1.50;;;12.10;99.90;;;;;;5064229;28;20172;-91
2021/05/17 01:56:37;;;;;;;5.38;1.92;;;12.10;99.90;;;;;;5056886;28;20545;-89
2021/05/17 01:59:03;;;;;;;4.38;1.60;;;12.20;99.90;;;;;;5061179;28;20216;-90
2021/05/17 02:01:29;;;;;;;5.10;1.50;;;12.20;99.90;;;;;;5100802;28;20180;-90
2021/05/17 02:03:55;;;;;;;7.85;1.60;;;12.10;99.90;;;;;;5060664;28;20174;-89
2021/05/17 02:06:21;;;;;;;6.50;1.58;;;12.10;99.90;;;;;;5056811;28;20176;-92
2021/05/17 02:08:48;;;;;;;7.93;1.60;;;12.00;99.90;;;;;;5065926;28;20174;-89
2021/05/17 02:11:16;;;;;;;4.50;1.20;;;12.00;99.90;;;;;;5060930;28;20168;-91
2021/05/17 02:13:42;;;;;;;5.00;1.60;;;12.00;99.90;;;;;;5090247;28;20171;-90
2021/05/17 02:16:12;;;;;;;7.25;1.50;;;12.00;99.90;;;;;;5068458;28;20183;-90
2021/05/17 02:18:41;;;;;;;5.57;1.90;;;12.00;99.90;;;;;;5057369;28;20164;-91
2021/05/17 02:21:07;;;;;;;5.68;1.50;;;12.00;99.90;;;;;;5089163;28;20203;-90
2021/05/17 02:23:33;;;;;;;7.07;1.63;;;12.00;99.90;;;;;;5061113;28;20171;-90
2021/05/17 02:26:00;;;;;;;14.25;1.60;;;12.10;99.90;;;;;;5072803;28;20206;-89
2021/05/17 02:28:26;;;;;;;3.63;1.17;;;12.00;99.90;;;;;;5077078;28;20191;-90
2021/05/17 02:30:52;;;;;;;5.53;1.70;;;12.00;99.90;;;;;;5061587;28;20175;-92
2021/05/17 02:33:18;;;;;;;7.72;1.67;;;12.00;99.90;;;;;;5055654;28;20175;-92
2021/05/17 02:35:45;;;;;;;3.58;1.20;;;12.00;99.90;;;;;;5055878;28;20195;-92
2021/05/17 02:38:11;;;;;;;7.68;1.77;;;12.00;99.90;;;;;;5041283;28;20183;-91
2021/05/17 02:40:37;;;;;;;13.32;1.95;;;12.00;99.90;;;;;;5056724;28;20183;-91
2021/05/17 02:43:10;;;;;;;13.00;1.73;;;12.00;99.90;;;;;;5066412;28;20206;-91
2021/05/17 02:45:36;;;;;;;6.07;1.20;;;11.90;99.90;;;;;;5104855;28;20211;-92
2021/05/17 02:48:04;;;;;;;5.60;1.52;;;11.90;99.90;;;;;;5061566;28;20175;-92
2021/05/17 02:50:39;;;;;;;13.70;1.90;;;11.90;99.90;;;;;;5055246;28;20168;-92
2021/05/17 02:53:39;;;;;;;6.53;1.73;;;11.80;99.90;;;;;;5056196;28;20179;-93
2021/05/17 02:56:11;;;;;;;9.77;1.45;;;11.80;99.90;;;;;;5013838;28;20176;-93
2021/05/17 02:58:42;;;;;;;4.07;1.63;;;11.80;99.90;;;;;;5045107;28;20244;-92
2021/05/17 03:01:15;;;;;;;12.75;2.63;;;11.70;99.90;;;;;;5048558;28;20505;-91
2021/05/17 03:03:50;;;;;;;10.25;1.70;;;11.70;99.90;;;;;;5061904;28;20247;-93
2021/05/17 03:06:30;;;;;;;10.35;1.88;;;11.70;99.90;;;;;;5069441;28;20206;-91
2021/05/17 03:09:01;;;;;;;10.60;1.92;;;11.70;99.90;;;;;;5036598;28;20568;-92
2021/05/17 03:11:28;;;;;;;6.57;1.70;;;11.80;99.90;;;;;;5051449;28;20210;-93
2021/05/17 03:13:54;;;;;;;6.60;1.55;;;11.70;99.90;;;;;;5054753;28;20671;-93
2021/05/17 03:16:22;;;;;;;10.65;1.67;;;11.80;99.90;;;;;;5055257;28;20179;-93
2021/05/17 03:18:49;;;;;;;10.82;1.40;;;11.70;99.90;;;;;;5069851;28;20182;-93
2021/05/17 03:21:19;;;;;;;8.20;1.42;;;11.70;99.90;;;;;;5035200;28;20196;-92
2021/05/17 03:23:47;;;;;;;7.72;1.95;;;11.70;99.90;;;;;;5057925;28;20179;-91
2021/05/17 03:26:13;;;;;;;6.70;1.42;;;11.70;99.90;;;;;;5057143;28;20249;-92
2021/05/17 03:28:39;;;;;;;3.25;1.30;;;11.70;99.90;;;;;;5059729;28;20184;-91
2021/05/17 03:31:05;;;;;;;4.82;1.50;;;11.70;99.90;;;;;;5039528;28;20174;-92
2021/05/17 03:33:30;;;;;;;9.98;2.00;;;11.70;99.90;;;;;;5054073;28;20195;-93
2021/05/17 03:35:56;;;;;;;6.32;1.40;;;11.70;99.90;;;;;;5040264;28;20207;-93
2021/05/17 03:38:21;;;;;;;7.30;1.45;;;11.70;99.90;;;;;;5054192;28;20183;-90
2021/05/17 03:40:47;;;;;;;6.05;1.23;;;11.70;99.90;;;;;;5055449;28;20176;-94
2021/05/17 03:43:13;;;;;;;9.90;1.98;;;11.70;99.90;;;;;;5055669;28;20171;-92
2021/05/17 03:45:38;;;;;;;16.15;2.38;;;11.70;99.90;;;;;;5030162;28;20624;-94
2021/05/17 03:48:04;;;;;;;7.53;1.65;;;11.60;99.90;;;;;;5055460;28;20168;-92
2021/05/17 03:50:30;;;;;;;5.22;1.75;;;11.50;99.90;;;;;;5055475;28;20183;-91
2021/05/17 03:52:56;;;;;;;6.28;1.38;;;11.50;99.90;;;;;;5054384;28;20175;-91
2021/05/17 03:55:21;;;;;;;4.20;1.38;;;11.50;99.90;;;;;;5053004;28;20188;-91
2021/05/17 03:57:47;;;;;;;6.85;1.67;;;11.50;99.90;;;;;;5070867;28;20651;-93
2021/05/17 04:00:13;;;;;;;6.70;1.73;;;11.50;99.90;;;;;;5034161;28;20169;-90
2021/05/17 04:02:41;;;;;;;10.90;1.50;;;11.60;99.90;;;;;;5069470;28;20176;-92
2021/05/17 04:15:33;;;;;;;9.13;1.75;;;11.70;99.90;;;;;;5061970;28;20312;-91
2021/05/17 04:17:58;;;;;;;9.80;1.77;;;11.60;99.90;;;;;;5055923;28;20630;-94
2021/05/17 04:20:24;;;;;;;10.82;1.92;;;11.60;99.90;;;;;;5087332;28;20215;-93
2021/05/17 04:22:50;;;;;;;8.88;2.17;;;11.70;99.90;;;;;;5057198;28;20578;-93
2021/05/17 04:25:16;;;;;;;9.95;1.85;;;11.70;99.90;;;;;;5070570;28;20228;-92
2021/05/17 04:27:41;;;;;;;8.70;1.60;;;11.70;99.90;;;;;;5070187;28;20179;-91
2021/05/17 04:30:07;;;;;;;5.85;1.65;;;11.70;99.90;;;;;;5037282;28;20549;-93
2021/05/17 04:32:33;;;;;;;7.82;1.50;;;11.70;99.90;;;;;;5053476;28;20167;-92
2021/05/17 04:34:59;;;;;;;13.27;1.73;;;11.70;99.90;;;;;;5086839;28;20194;-90
2021/05/17 04:37:25;;;;;;;9.88;2.40;;;11.80;99.90;;;;;;5052992;28;20647;-89
2021/05/17 04:39:51;;;;;;;9.45;1.67;;;11.80;99.90;;;;;;5053571;28;20179;-93
2021/05/17 04:42:17;;;;;;;10.32;1.77;;;11.80;99.90;;;;;;5053060;28;20618;-90
2021/05/17 04:44:42;;;;;;;6.32;2.00;;;11.80;99.90;;;;;;5053969;28;20561;-92
2021/05/17 04:47:08;;;;;;;4.28;1.65;;;11.80;99.90;;;;;;5054725;28;20179;-93
2021/05/17 04:49:34;;;;;;;7.13;1.50;;;11.80;99.90;;;;;;5033680;28;20183;-93
2021/05/17 04:51:59;;;;;;;11.23;1.98;;;11.90;99.90;;;;;;5033863;28;20176;-91
2021/05/17 04:54:25;;;;;;;4.70;1.40;;;11.80;99.90;;;;;;5055089;28;20617;-92
2021/05/17 04:56:51;;;;;;;4.97;1.42;;;11.90;99.90;;;;;;5069867;28;20198;-90
2021/05/17 04:59:17;;;;;;;7.53;1.45;;;11.80;99.90;;;;;;5059386;28;20184;-93
2021/05/17 05:01:42;;;;;;;9.65;1.92;;;11.80;99.90;;;;;;5053827;28;20173;-91
2021/05/17 05:04:08;;;;;;;6.00;1.70;;;11.80;99.90;;;;;;5048046;28;20204;-93
2021/05/17 05:06:34;;;;;;;7.03;1.50;;;11.80;99.90;;;;;;5056447;28;20201;-94
2021/05/17 05:08:59;;;;;;;1.83;1.35;;;11.70;99.90;;;;;;5037152;28;20180;-92
2021/05/17 05:11:25;;;;;;;8.30;2.03;;;11.50;99.90;;;;;;5064999;28;20201;-92
2021/05/17 05:13:51;;;;;;;8.18;1.65;;;11.50;99.90;;;;;;5076803;28;20186;-91
2021/05/17 05:16:16;;;;;;;2.85;1.48;;;11.40;99.90;;;;;;5075141;28;20167;-91
2021/05/17 05:18:42;;;;;;;9.25;2.13;;;11.30;99.90;;;;;;5093891;28;20175;-94
2021/05/17 05:21:08;;;;;;;4.30;1.90;;;11.30;99.90;;;;;;5057153;28;20511;-91
2021/05/17 05:23:33;;;;;;;9.65;1.70;;;11.30;99.90;;;;;;5073790;28;20225;-93
2021/05/17 05:28:34;;;;;;;8.90;1.90;;;11.20;99.90;;;;;;5056871;28;20191;-92
2021/05/17 05:31:05;;;;;;;7.47;2.38;;;11.30;99.90;;;;;;5058724;28;20474;-94
2021/05/17 05:33:31;;;;;;;6.00;1.75;;;11.30;99.90;;;;;;5057212;28;20673;-92
2021/05/17 05:35:56;;;;;;;8.15;2.08;;;11.30;99.90;;;;;;5056811;28;20183;-93
2021/05/17 05:38:22;;;;;;;6.60;1.75;;;11.30;99.90;;;;;;5056668;28;20279;-93
2021/05/17 05:40:48;;;;;;;7.35;2.03;;;11.30;99.90;;;;;;5057528;28;20186;-94
2021/05/17 05:43:13;;;;;;;7.57;2.03;;;11.40;99.90;;;;;;5091024;28;20171;-92
2021/05/17 05:45:45;;;;;;;6.18;1.60;;;11.40;99.90;;;;;;5084105;28;20214;-92
2021/05/17 05:48:11;;;;;;;3.95;1.75;;;11.60;99.90;;;;;;5057588;28;20631;-93
2021/05/17 05:50:38;;;;;;;10.38;2.30;;;11.60;99.90;;;;;;5039196;28;20640;-94
2021/05/17 05:53:04;;;;;;;8.05;1.70;;;11.70;99.90;;;;;;5042521;28;20171;-94
2021/05/17 05:55:29;;;;;;;6.72;2.15;;;11.70;99.90;;;;;;5058402;28;20176;-93
2021/05/17 05:57:56;;;;;;;7.28;1.73;;;11.70;99.90;;;;;;5057078;28;20694;-94
2021/05/17 06:00:23;;;;;;;8.15;2.25;;;11.90;99.90;;;;;;5059959;28;20243;-94
2021/05/17 06:02:49;;;;;;;8.43;2.10;;;12.00;99.90;;;;;;5057320;28;20197;-93
2021/05/17 06:05:15;;;;;;;5.88;1.90;;;12.20;99.90;;;;;;5057144;28;20203;-92
2021/05/17 06:07:40;;;;;;;9.85;1.77;;;12.30;99.90;;;;;;5057877;28;20175;-94
2021/05/17 06:10:09;;;;;;;5.50;2.75;;;12.40;99.90;;;;;;5062437;28;20210;-93
2021/05/17 06:12:37;;;;;;;6.15;1.60;;;12.50;99.90;;;;;;5091113;28;20164;-95
2021/05/17 06:15:04;;;;;;;6.57;2.53;;;12.60;99.90;;;;;;5074385;28;20218;-93
2021/05/17 06:17:30;;;;;;;3.42;1.70;;;12.70;99.90;;;;;;5055983;28;20182;-93
2021/05/17 06:19:57;;;;;;;5.40;1.60;;;12.70;99.90;;;;;;5055542;28;20171;-83
2021/05/17 06:22:26;;;;;;;5.38;1.60;;;12.60;99.90;;;;;;5056230;28;20168;-83
2021/05/17 06:24:53;;;;;;;4.28;1.27;;;12.60;99.90;;;;;;5056377;28;20237;-85
2021/05/17 06:27:19;;;;;;;8.40;1.80;;;12.50;99.90;;;;;;5054174;28;20179;-82
2021/05/17 06:29:46;;;;;;;5.72;1.80;;;12.50;99.90;;;;;;5066380;28;20182;-83
2021/05/17 06:32:14;;;;;;;8.40;2.00;;;12.50;99.90;;;;;;5054306;28;20651;-83
2021/05/17 06:34:40;;;;;;;8.77;2.08;;;12.60;99.90;;;;;;5082781;28;20540;-85
2021/05/17 06:37:07;;;;;;;8.10;2.55;;;12.40;99.90;;;;;;5034843;28;20242;-83
2021/05/17 06:39:33;;;;;;;6.63;1.90;;;12.30;99.90;;;;;;5053423;28;20236;-84
2021/05/17 06:41:59;;;;;;;5.82;2.47;;;12.20;99.90;;;;;;5054301;28;20171;-83
2021/05/17 06:44:25;;;;;;;7.95;2.25;;;12.20;99.90;;;;;;5054031;28;20257;-83
2021/05/17 06:46:51;;;;;;;4.70;1.98;;;12.20;99.90;;;;;;5054563;28;20179;-83
2021/05/17 06:49:16;;;;;;;11.35;2.28;;;12.20;99.90;;;;;;5055067;28;20171;-84
2021/05/17 06:51:42;;;;;;;8.15;2.00;;;12.30;99.90;;;;;;5052032;28;20168;-82
2021/05/17 06:54:09;;;;;;;9.00;1.98;;;12.20;99.90;;;;;;5055390;28;20631;-83
2021/05/17 06:56:48;;;;;;;4.22;2.10;;;12.20;99.90;;;;;;5055283;28;20182;-87
2021/05/17 06:59:18;;;;;;;12.85;2.25;;;12.40;99.90;;;;;;5041488;28;20232;-83
2021/05/17 07:01:44;;;;;;;7.43;2.00;;;12.40;99.90;;;;;;5053581;28;20159;-84
2021/05/17 07:04:13;;;;;;;6.13;1.98;;;12.50;99.90;;;;;;5057571;28;20176;-83
2021/05/17 07:06:41;;;;;;;5.72;1.88;;;12.70;99.90;;;;;;5057599;28;20176;-83
2021/05/17 07:14:17;;;;;;;7.40;2.40;;;12.20;99.90;;;;;;5055275;28;20172;-84
2021/05/17 07:16:43;;;;;;;5.40;1.60;;;12.10;99.90;;;;;;5055207;28;20168;-83
2021/05/17 07:19:09;;;;;;;6.78;2.15;;;12.10;99.90;;;;;;5054786;28;20179;-83
2021/05/17 07:24:21;;;;;;;4.40;2.15;;;12.00;99.90;;;;;;5061427;28;20591;-82
2021/05/17 07:26:48;;;;;;;6.10;1.67;;;11.90;99.90;;;;;;5064382;28;20175;-85
2021/05/17 07:29:14;;;;;;;7.80;2.10;;;11.90;99.90;;;;;;5078940;28;20170;-82
2021/05/17 07:31:41;;;;;;;13.38;2.42;;;11.90;99.90;;;;;;5061844;28;20175;-82
2021/05/17 07:34:06;;;;;;;7.15;1.90;;;12.00;99.90;;;;;;5054657;28;20193;-82
2021/05/17 07:36:32;;;;;;;5.97;2.13;;;12.00;99.90;;;;;;5053493;28;20642;-81
2021/05/17 07:38:58;;;;;;;5.65;2.50;;;12.00;99.90;;;;;;5054558;28;20258;-82
2021/05/17 07:41:24;;;;;;;6.32;2.05;;;12.10;99.90;;;;;;5055705;28;20174;-82
2021/05/17 07:43:50;;;;;;;4.25;2.30;;;12.00;99.90;;;;;;5063922;28;20198;-82
2021/05/17 07:46:15;;;;;;;5.38;2.25;;;12.10;99.90;;;;;;5077592;28;20202;-83
2021/05/17 07:51:26;;;;;;;3.97;2.10;;;12.10;99.90;;;;;;5052255;28;20556;-83
2021/05/17 07:53:52;;;;;;;4.18;2.40;;;12.20;99.90;;;;;;5085480;28;20199;-83
2021/05/17 07:56:18;;;;;;;8.85;2.83;;;12.20;99.90;;;;;;5052777;28;20167;-82
2021/05/17 07:58:44;;;;;;;8.88;2.75;;;12.20;99.90;;;;;;5055005;28;20182;-85
2021/05/17 08:01:13;;;;;;;6.95;2.63;;;12.40;99.90;;;;;;5053754;28;20600;-81
2021/05/17 08:03:39;;;;;;;6.88;2.40;;;12.50;99.90;;;;;;5054204;28;20217;-84
2021/05/17 08:06:07;;;;;;;6.68;2.40;;;12.50;99.90;;;;;;5052913;28;20211;-82
2021/05/17 08:08:33;;;;;;;7.38;2.42;;;12.50;99.90;;;;;;5052367;28;20596;-82
2021/05/17 08:11:00;;;;;;;7.80;2.50;;;12.60;99.90;;;;;;5053220;28;20254;-82
2021/05/17 08:13:26;;;;;;;7.00;2.40;;;12.50;99.90;;;;;;5054184;28;20159;-82
2021/05/17 08:15:52;;;;;;;4.15;2.80;;;12.50;99.90;;;;;;5053065;28;20175;-82
2021/05/17 08:18:17;;;;;;;5.38;2.50;;;12.50;99.90;;;;;;5052276;28;20540;-82
2021/05/17 08:20:43;;;;;;;6.78;3.20;;;12.50;99.90;;;;;;5035688;28;20171;-81
2021/05/17 08:23:13;;;;;;;9.73;3.35;;;12.50;99.90;;;;;;5052602;28;20186;-82
2021/05/17 08:25:38;;;;;;;10.75;3.60;;;12.40;99.90;;;;;;5053738;28;20202;-83
2021/05/17 08:28:04;;;;;;;7.80;3.28;;;12.40;99.90;;;;;;5052091;28;20171;-82
2021/05/17 08:30:32;;;;;;;11.20;3.45;;;12.40;99.90;;;;;;5053831;28;20171;-83
2021/05/17 08:32:58;;;;;;;5.28;3.22;;;12.40;99.90;;;;;;5052280;28;20182;-82
2021/05/17 08:35:24;;;;;;;8.60;3.85;;;12.40;99.90;;;;;;5053059;28;20232;-83
2021/05/17 08:37:50;;;;;;;4.50;2.72;;;12.50;99.90;;;;;;5051997;28;20168;-82
2021/05/17 08:40:15;;;;;;;6.50;2.75;;;12.50;99.90;;;;;;5053147;28;20609;-83
2021/05/17 08:42:41;;;;;;;5.68;2.38;;;12.50;99.90;;;;;;5053007;28;20198;-82
2021/05/17 08:45:08;;;;;;;8.90;2.90;;;12.50;99.90;;;;;;5048220;28;20207;-82
2021/05/17 08:47:34;;;;;;;6.28;3.20;;;12.50;99.90;;;;;;5051964;28;20179;-84
2021/05/17 08:49:59;;;;;;;8.05;3.55;;;12.60;99.90;;;;;;5052232;28;20159;-83
2021/05/17 08:52:25;;;;;;;6.25;3.50;;;12.70;99.90;;;;;;5051616;28;20509;-83
2021/05/17 08:54:51;;;;;;;10.07;2.95;;;12.80;99.90;;;;;;5035732;28;20179;-83
2021/05/17 08:57:17;;;;;;;3.78;2.92;;;13.00;99.90;;;;;;5053010;28;20183;-84
2021/05/17 08:59:43;;;;;;;4.35;3.17;;;13.10;99.90;;;;;;5051809;28;20183;-84
2021/05/17 09:02:08;;;;;;;9.25;3.40;;;13.10;99.90;;;;;;5053150;28;20265;-83
2021/05/17 09:04:34;;;;;;;6.20;2.90;;;13.00;99.90;;;;;;5052968;28;20297;-83
2021/05/17 09:07:00;;;;;;;6.95;3.30;;;13.10;99.90;;;;;;5051872;28;20179;-84
2021/05/17 09:09:32;;;;;;;4.43;3.35;;;13.10;99.90;;;;;;5052147;28;20253;-84
2021/05/17 09:12:10;;;;;;;5.45;3.22;;;13.00;99.90;;;;;;5051851;28;20268;-84
2021/05/17 09:14:37;;;;;;;6.90;3.92;;;13.00;99.90;;;;;;5051461;28;20254;-85
2021/05/17 09:17:10;;;;;;;5.22;4.38;;;13.10;99.90;;;;;;5052250;28;20171;-83
2021/05/17 09:19:39;;;;;;;6.13;4.22;;;13.10;99.90;;;;;;5051934;28;20198;-86
2021/05/17 09:22:18;;;;;;;5.05;3.72;;;13.10;99.90;;;;;;5051679;28;20210;-84
2021/05/17 09:24:51;;;;;;;5.53;4.43;;;13.20;99.90;;;;;;5052806;28;20278;-84
2021/05/17 09:27:25;;;;;;;8.40;5.05;;;13.50;99.90;;;;;;5051528;28;20180;-83
2021/05/17 09:30:00;;;;;;;5.60;4.90;;;13.70;99.90;;;;;;5052777;28;20171;-84
2021/05/17 09:32:37;;;;;;;10.95;5.15;;;13.80;99.90;;;;;;5053131;28;20163;-85
2021/05/17 09:35:05;;;;;;;8.73;5.80;;;14.20;99.90;;;;;;5051268;28;20254;-84
2021/05/17 09:37:59;;;;;;;6.78;5.10;;;14.80;99.90;;;;;;5051699;28;20715;-84
2021/05/17 09:40:27;;;;;;;5.80;5.18;;;15.00;99.90;;;;;;5053039;28;20175;-84
2021/05/17 09:43:05;;;;;;;9.75;4.38;;;15.20;99.90;;;;;;5052706;28;20159;-84
2021/05/17 09:45:35;;;;;;;10.68;4.50;;;15.30;99.90;;;;;;5052613;28;20207;-84
2021/05/17 09:48:02;;;;;;;11.60;5.20;;;15.20;99.90;;;;;;5051541;28;20266;-84
2021/05/17 09:50:27;;;;;;;5.45;4.57;;;15.00;99.90;;;;;;5051653;28;20160;-83
2021/05/17 09:52:53;;;;;;;4.80;4.40;;;14.70;99.90;;;;;;5059419;28;20174;-86
2021/05/17 09:55:19;;;;;;;9.10;5.78;;;14.60;99.90;;;;;;5070450;28;20198;-86
2021/05/17 09:57:47;;;;;;;11.73;5.60;;;14.30;99.90;;;;;;5079386;28;20171;-83
2021/05/17 10:00:21;;;;;;;16.08;5.78;;;14.40;99.90;;;;;;5074661;28;20172;-83
2021/05/17 10:02:51;;;;;;;10.00;5.75;;;14.30;99.90;;;;;;5055283;28;20168;-85
2021/05/17 10:05:17;;;;;;;15.73;6.30;;;14.30;99.90;;;;;;5055765;28;20208;-85
2021/05/17 10:07:44;;;;;;;8.52;6.68;;;14.30;99.90;;;;;;5057394;28;20542;-83
2021/05/17 10:10:13;;;;;;;6.80;6.10;;;14.20;99.90;;;;;;5065127;28;20179;-86
2021/05/17 10:12:40;;;;;;;9.27;5.05;;;14.30;99.90;;;;;;5069990;28;20175;-84
2021/05/17 10:15:09;;;;;;;4.47;3.47;;;14.30;99.90;;;;;;5075125;28;20662;-84
2021/05/17 10:17:36;;;;;;;4.28;3.88;;;14.30;99.90;;;;;;5059085;28;20175;-84
2021/05/17 10:20:08;;;;;;;6.75;3.83;;;14.40;99.90;;;;;;5040016;28;20183;-83
2021/05/17 10:22:34;;;;;;;9.60;4.80;;;14.30;99.90;;;;;;5036286;28;20243;-83
2021/05/17 10:25:04;;;;;;;4.10;3.67;;;14.20;99.90;;;;;;5034864;28;20299;-83
2021/05/17 10:27:31;;;;;;;4.95;3.40;;;14.20;99.90;;;;;;5044726;28;20171;-84
2021/05/17 10:30:05;;;;;;;5.72;3.65;;;14.30;99.90;;;;;;5050998;28;20671;-73
2021/05/17 10:33:10;;;;;;;10.63;4.60;;;14.30;99.90;;;;;;5070449;28;20267;-74
2021/05/17 10:35:41;;;;;;;7.07;5.85;;;14.30;99.90;;;;;;5066818;28;20183;-74
2021/05/17 10:38:14;;;;;;;12.73;6.80;;;14.40;99.90;;;;;;5044177;28;20163;-72
2021/05/17 10:40:42;;;;;;;20.25;8.85;;;14.30;99.90;;;;;;5055851;28;20178;-73
2021/05/17 10:43:31;;;;;;;14.10;8.32;;;14.00;99.90;;;;;;5054903;28;20608;-74
2021/05/17 10:49:45;;;;;;;16.23;9.00;;;13.70;99.90;;;;;;5055224;28;20241;-72
2021/05/17 10:52:11;;;;;;;19.52;10.77;;;13.70;99.90;;;;;;5042906;28;20179;-72
2021/05/17 10:54:42;;;;;;;16.95;9.27;;;13.90;99.90;;;;;;5053761;28;20527;-73
2021/05/17 10:57:16;;;;;;;14.25;9.45;;;14.00;99.90;;;;;;5054895;28;20190;-72
2021/05/17 11:02:43;;;;;;;18.02;9.85;;;14.40;99.90;;;;;;5044061;28;20188;-72
2021/05/17 11:05:20;;;;;;;27.85;10.00;;;14.80;99.90;;;;;;5035756;28;20687;-72
2021/05/17 11:07:50;;;;;;;15.40;9.77;;;15.10;99.90;;;;;;5055171;28;20178;-72
2021/05/17 11:10:23;;;;;;;18.63;9.27;;;15.40;99.90;;;;;;5056065;28;20221;-72
2021/05/17 11:12:52;;;;;;;23.98;10.35;;;16.10;99.90;;;;;;5055090;28;20569;-73
2021/05/17 11:15:21;;;;;;;16.73;8.80;;;17.20;99.90;;;;;;5054965;28;20574;-72
2021/05/17 11:17:57;;;;;;;12.60;6.35;;;19.70;99.90;;;;;;5055043;28;20202;-72
2021/05/17 11:20:41;;;;;;;13.07;5.85;;;22.50;99.90;;;;;;5054815;28;20202;-73
2021/05/17 11:23:16;;;;;;;7.22;4.97;;;25.30;99.90;;;;;;5054809;28;20175;-72
2021/05/17 11:25:56;;;;;;;11.32;5.25;;;26.20;99.90;;;;;;5054738;28;20198;-72
2021/05/17 11:28:39;;;;;;;9.95;4.95;;;24.50;99.90;;;;;;5054861;28;20165;-72
2021/05/17 11:31:12;;;;;;;11.13;5.28;;;24.00;99.90;;;;;;5054353;28;20159;-72
2021/05/17 11:33:47;;;;;;;7.25;5.32;;;21.90;99.90;;;;;;5052952;28;20345;-73
2021/05/17 11:36:12;;;;;;;13.77;5.47;;;21.00;99.90;;;;;;5054923;28;20170;-72
2021/05/17 11:39:01;;;;;;;8.93;5.68;;;20.40;99.90;;;;;;5054943;28;20179;-72
2021/05/17 11:41:29;;;;;;;23.33;6.32;;;19.80;99.90;;;;;;5053245;28;20179;-72
2021/05/17 11:44:02;;;;;;;10.00;5.53;;;19.70;99.90;;;;;;5053727;28;20532;-72
2021/05/17 11:46:49;;;;;;;9.43;6.07;;;22.90;99.90;;;;;;5054182;28;20644;-72
2021/05/17 11:49:17;;;;;;;8.02;4.38;;;24.60;99.90;;;;;;5054530;28;20159;-72
2021/05/17 11:51:49;;;;;;;8.35;5.00;;;23.20;99.90;;;;;;5054179;28;20216;-72
2021/05/17 11:54:15;;;;;;;8.60;5.28;;;22.20;99.90;;;;;;5053767;28;20171;-72
2021/05/17 11:56:46;;;;;;;5.03;3.97;;;21.50;99.90;;;;;;5054261;28;20179;-73
2021/05/17 11:59:17;;;;;;;12.02;4.65;;;21.30;99.90;;;;;;5053891;28;20301;-73
2021/05/17 12:01:48;;;;;;;8.80;4.93;;;22.50;99.90;;;;;;5054120;28;20152;-73
2021/05/17 12:04:21;;;;;;;7.95;4.57;;;21.90;99.90;;;;;;5053641;28;20635;-72
2021/05/17 12:06:52;;;;;;;12.05;4.07;;;20.90;99.90;;;;;;5054223;28;20190;-72
2021/05/17 12:09:40;;;;;;;10.20;4.55;;;20.80;99.90;;;;;;5034350;28;20172;-72
2021/05/17 12:12:15;;;;;;;13.48;4.18;;;20.40;99.90;;;;;;5033939;28;20563;-72
2021/05/17 12:14:45;;;;;;;7.03;4.03;;;20.20;99.90;;;;;;5040962;28;20202;-73
2021/05/17 12:17:21;;;;;;;8.52;3.50;;;21.40;99.90;;;;;;5052161;28;20172;-72
2021/05/17 12:19:49;;;;;;;10.40;4.38;;;21.60;99.90;;;;;;5053787;28;20578;-72
2021/05/17 12:22:25;;;;;;;6.93;4.07;;;21.40;99.90;;;;;;5053236;28;20174;-72
2021/05/17 12:24:53;;;;;;;7.50;3.85;;;21.10;99.90;;;;;;5052704;28;20195;-73
2021/05/17 12:27:20;;;;;;;10.10;3.75;;;20.30;99.90;;;;;;5055895;28;20202;-74
2021/05/17 12:29:53;;;;;;;8.68;4.55;;;20.00;99.90;;;;;;5055234;28;20258;-73
2021/05/17 12:32:34;;;;;;;9.50;5.13;;;19.90;99.90;;;;;;5054578;28;20648;-73
2021/05/17 12:35:04;;;;;;;8.35;5.00;;;20.20;99.90;;;;;;5048367;28;20167;-73
2021/05/17 12:37:32;;;;;;;7.63;5.07;;;19.50;99.90;;;;;;5050957;28;20179;-73
2021/05/17 12:40:25;;;;;;;11.40;5.78;;;18.90;99.90;;;;;;5033492;28;20207;-72
2021/05/17 12:43:17;;;;;;;13.27;5.80;;;18.60;99.90;;;;;;5032973;28;20247;-72
2021/05/17 12:45:44;;;;;;;9.52;5.05;;;18.40;99.90;;;;;;5033378;28;20214;-72
2021/05/17 12:48:21;;;;;;;9.75;5.15;;;18.30;99.90;;;;;;5051669;28;20175;-72
2021/05/17 12:50:53;;;;;;;9.13;5.00;;;18.40;99.90;;;;;;5053019;28;20187;-72
2021/05/17 12:53:20;;;;;;;8.88;5.03;;;18.20;99.90;;;;;;5053100;28;20262;-73
2021/05/17 12:55:50;;;;;;;7.38;4.50;;;18.50;99.90;;;;;;5053016;28;20198;-73
2021/05/17 12:58:32;;;;;;;8.40;4.80;;;18.80;99.90;;;;;;5051026;28;20202;-72
2021/05/17 13:01:00;;;;;;;10.30;4.68;;;18.60;99.90;;;;;;5053239;28;20175;-72
2021/05/17 13:03:26;;;;;;;6.20;4.32;;;18.60;99.90;;;;;;5053088;28;20163;-72
2021/05/17 13:06:01;;;;;;;8.10;4.78;;;18.60;99.90;;;;;;5052767;28;20255;-72
2021/05/17 13:08:28;;;;;;;9.93;5.30;;;18.50;99.90;;;;;;5052705;28;20179;-72
2021/05/17 13:10:55;;;;;;;8.75;5.15;;;18.50;99.90;;;;;;5047340;28;20176;-73
2021/05/17 13:13:40;;;;;;;11.57;5.18;;;18.70;99.90;;;;;;5052807;28;20171;-72
2021/05/17 13:16:05;;;;;;;7.78;4.90;;;18.90;99.90;;;;;;5053164;28;20221;-74
2021/05/17 13:19:12;;;;;;;10.82;5.90;;;18.70;99.90;;;;;;5052509;28;20175;-73
2021/05/17 13:21:51;;;;;;;7.03;4.78;;;18.80;99.90;;;;;;5051235;28;20616;-72